createdAt,value
2023-04-02T00:00:28.136Z,1.70
2023-04-02T00:02:55.593Z,2.10
2023-04-02T00:05:31.444Z,1.75
2023-04-02T00:08:10.433Z,2.38
2023-04-02T00:10:48.902Z,2.10
2023-04-02T00:13:18.654Z,1.95
2023-04-02T00:15:54.431Z,2.13
2023-04-02T00:18:22.366Z,2.03
2023-04-02T00:20:54.014Z,2.20
2023-04-02T00:23:20.972Z,2.10
2023-04-02T00:25:47.717Z,1.90
2023-04-02T00:28:20.654Z,2.08
2023-04-02T00:30:59.481Z,2.15
2023-04-02T00:33:30.480Z,1.83
2023-04-02T00:35:57.605Z,2.08
2023-04-02T00:38:28.336Z,1.67
2023-04-02T00:40:58.538Z,1.70
2023-04-02T00:43:30.705Z,1.80
2023-04-02T00:46:01.558Z,1.80
2023-04-02T00:48:52.280Z,1.75
2023-04-02T00:51:28.132Z,1.45
2023-04-02T00:53:58.032Z,1.27
2023-04-02T00:56:41.502Z,1.77
2023-04-02T00:59:21.004Z,1.83
2023-04-02T01:01:54.772Z,1.88
2023-04-02T01:04:36.566Z,1.73
2023-04-02T01:07:07.135Z,1.52
2023-04-02T01:10:03.465Z,1.80
2023-04-02T01:12:37.544Z,2.00
2023-04-02T01:15:04.437Z,1.75
2023-04-02T01:18:02.766Z,1.80
2023-04-02T01:20:38.660Z,2.17
2023-04-02T01:23:23.234Z,2.17
2023-04-02T01:26:15.093Z,2.00
2023-04-02T01:29:02.302Z,2.03
2023-04-02T01:31:30.756Z,2.00
2023-04-02T01:33:57.822Z,2.08
2023-04-02T01:36:43.569Z,2.17
2023-04-02T01:39:37.881Z,2.47
2023-04-02T01:42:38.649Z,2.40
2023-04-02T01:45:11.107Z,2.08
2023-04-02T01:47:39.590Z,2.55
2023-04-02T01:50:22.033Z,2.22
2023-04-02T01:52:52.397Z,2.08
2023-04-02T01:55:29.260Z,2.10
2023-04-02T01:57:57.487Z,2.30
2023-04-02T02:00:25.819Z,2.40
2023-04-02T02:02:56.150Z,1.90
2023-04-02T02:05:23.816Z,1.90
2023-04-02T02:07:54.647Z,1.83
2023-04-02T02:10:33.078Z,1.90
2023-04-02T02:13:00.568Z,1.88
2023-04-02T02:15:28.676Z,1.85
2023-04-02T02:17:59.513Z,1.50
2023-04-02T02:20:28.114Z,1.67
2023-04-02T02:22:56.722Z,2.78
2023-04-02T02:25:31.803Z,1.25
2023-04-02T02:28:01.163Z,1.45
2023-04-02T02:30:37.969Z,1.20
2023-04-02T02:33:15.356Z,1.00
2023-04-02T02:36:28.149Z,0.20
2023-04-02T02:38:57.228Z,0.20
2023-04-02T02:41:44.902Z,0.32
2023-04-02T02:44:19.573Z,0.10
2023-04-02T02:47:06.964Z,0.10
2023-04-02T02:49:39.487Z,0.10
2023-04-02T02:52:16.245Z,0.10
2023-04-02T02:55:11.039Z,0.20
2023-04-02T02:58:18.181Z,0.20
2023-04-02T03:01:00.566Z,0.10
2023-04-02T03:03:35.060Z,0.20
2023-04-02T03:06:08.492Z,0.10
2023-04-02T03:08:44.924Z,0.10
2023-04-02T03:11:26.548Z,0.17
2023-04-02T03:14:02.892Z,0.13
2023-04-02T03:16:45.804Z,0.10
2023-04-02T03:19:44.123Z,0.10
2023-04-02T03:22:27.135Z,0.10
2023-04-02T03:25:01.353Z,0.10
2023-04-02T03:27:36.521Z,0.10
2023-04-02T03:30:38.348Z,0.10
2023-04-02T03:33:17.516Z,0.20
2023-04-02T03:36:03.772Z,0.10
2023-04-02T03:38:43.620Z,0.10
2023-04-02T03:41:22.873Z,0.10
2023-04-02T03:43:58.729Z,0.10
2023-04-02T03:46:35.506Z,0.10
2023-04-02T03:49:14.641Z,0.10
2023-04-02T03:52:09.669Z,0.10
2023-04-02T03:54:38.517Z,0.10
2023-04-02T03:57:13.592Z,0.10
2023-04-02T04:00:16.468Z,0.20
2023-04-02T04:03:06.228Z,0.13
2023-04-02T04:05:38.499Z,0.45
2023-04-02T04:08:13.971Z,0.40
2023-04-02T04:10:43.417Z,0.60
2023-04-02T04:13:17.861Z,0.80
2023-04-02T04:16:02.865Z,1.08
2023-04-02T04:18:42.324Z,1.50
2023-04-02T04:21:29.926Z,1.40
2023-04-02T04:24:04.280Z,1.35
2023-04-02T04:26:41.286Z,1.30
2023-04-02T04:29:46.698Z,1.20
2023-04-02T04:32:35.298Z,1.67
2023-04-02T04:35:27.346Z,1.92
2023-04-02T04:38:07.772Z,1.40
2023-04-02T04:40:42.392Z,1.63
2023-04-02T04:43:26.257Z,1.60
2023-04-02T04:46:03.660Z,1.77
2023-04-02T04:48:39.090Z,1.30
2023-04-02T04:51:17.978Z,1.10
2023-04-02T04:53:51.165Z,1.00
2023-04-02T04:56:26.000Z,1.00
2023-04-02T04:59:05.246Z,0.88
2023-04-02T05:02:02.232Z,0.47
2023-04-02T05:04:37.400Z,0.75
2023-04-02T05:07:16.695Z,0.77
2023-04-02T05:12:43.916Z,0.77
2023-04-02T05:15:33.972Z,0.90
2023-04-02T05:18:31.090Z,0.77
2023-04-02T05:20:58.115Z,0.90
2023-04-02T05:23:30.789Z,0.82
2023-04-02T05:26:17.958Z,0.88
2023-04-02T05:29:06.576Z,0.80
2023-04-02T05:31:43.454Z,0.80
2023-04-02T05:34:12.615Z,0.90
2023-04-02T05:36:39.837Z,0.57
2023-04-02T05:39:11.291Z,0.90
2023-04-02T05:41:48.033Z,0.50
2023-04-02T05:44:38.598Z,0.30
2023-04-02T05:47:18.868Z,0.20
2023-04-02T05:50:20.760Z,0.13
2023-04-02T05:52:57.044Z,0.10
2023-04-02T05:55:42.248Z,0.20
2023-04-02T06:01:13.506Z,0.20
2023-04-02T06:03:59.691Z,0.10
2023-04-02T06:06:43.904Z,0.20
2023-04-02T06:09:35.226Z,0.10
2023-04-02T06:12:15.083Z,0.00
2023-04-02T06:14:43.085Z,0.10
2023-04-02T06:17:15.717Z,0.08
2023-04-02T06:19:42.903Z,0.10
2023-04-02T06:22:30.943Z,0.20
2023-04-02T06:25:05.035Z,0.10
2023-04-02T06:27:40.840Z,0.15
2023-04-02T06:30:42.824Z,0.20
2023-04-02T06:33:15.582Z,0.22
2023-04-02T06:35:47.576Z,0.10
2023-04-02T06:38:29.548Z,0.30
2023-04-02T06:41:00.010Z,0.10
2023-04-02T06:44:00.066Z,0.10
2023-04-02T06:47:17.626Z,0.20
2023-04-02T06:50:22.406Z,0.20
2023-04-02T06:53:09.708Z,0.20
2023-04-02T06:56:05.266Z,0.20
2023-04-02T06:58:34.066Z,0.20
2023-04-02T07:01:02.094Z,0.20
2023-04-02T07:03:41.170Z,0.20
2023-04-02T07:06:20.846Z,0.30
2023-04-02T07:08:50.074Z,0.25
2023-04-02T07:11:21.365Z,0.28
2023-04-02T07:13:51.051Z,0.30
2023-04-02T07:16:21.152Z,0.10
2023-04-02T07:18:49.328Z,0.30
2023-04-02T07:21:16.479Z,0.30
2023-04-02T07:23:49.761Z,0.20
2023-04-02T07:26:22.876Z,0.30
2023-04-02T07:28:50.127Z,0.30
2023-04-02T07:31:17.517Z,0.30
2023-04-02T07:33:45.433Z,0.20
2023-04-02T07:36:17.730Z,0.28
2023-04-02T07:38:44.558Z,0.20
2023-04-02T07:41:11.934Z,0.30
2023-04-02T07:43:39.414Z,0.20
2023-04-02T07:46:07.451Z,0.20
2023-04-02T07:48:34.395Z,0.30
2023-04-02T07:51:03.328Z,0.35
2023-04-02T07:53:38.785Z,0.37
2023-04-02T07:56:08.141Z,0.25
2023-04-02T07:58:35.666Z,0.30
2023-04-02T08:01:03.920Z,0.20
2023-04-02T08:03:31.375Z,0.30
2023-04-02T08:05:58.920Z,0.20
2023-04-02T08:08:26.081Z,0.28
2023-04-02T08:10:53.096Z,0.35
2023-04-02T08:13:20.499Z,0.20
2023-04-02T08:15:47.238Z,0.20
2023-04-02T08:18:14.078Z,0.20
2023-04-02T08:20:40.927Z,0.30
2023-04-02T08:23:15.588Z,0.30
2023-04-02T08:25:42.580Z,0.30
2023-04-02T08:28:09.365Z,0.40
2023-04-02T08:30:36.612Z,0.20
2023-04-02T08:33:04.563Z,0.22
2023-04-02T08:35:31.796Z,0.20
2023-04-02T08:37:59.201Z,0.30
2023-04-02T08:40:48.918Z,0.28
2023-04-02T08:43:31.065Z,0.20
2023-04-02T08:46:07.781Z,0.30
2023-04-02T08:48:37.827Z,0.20
2023-04-02T08:51:06.593Z,0.20
2023-04-02T08:53:39.273Z,0.22
2023-04-02T08:56:19.083Z,0.30
2023-04-02T08:58:54.476Z,0.20
2023-04-02T09:01:27.170Z,0.22
2023-04-02T09:03:58.321Z,0.20
2023-04-02T09:06:26.281Z,0.20
2023-04-02T09:08:53.770Z,0.30
2023-04-02T09:11:23.870Z,0.20
2023-04-02T09:14:03.398Z,0.10
2023-04-02T09:16:44.171Z,0.20
2023-04-02T09:19:25.449Z,0.20
2023-04-02T09:22:23.234Z,0.20
2023-04-02T09:24:53.659Z,0.13
2023-04-02T09:27:23.089Z,0.20
2023-04-02T09:29:55.642Z,0.30
2023-04-02T09:32:48.132Z,0.20
2023-04-02T09:35:39.718Z,0.20
2023-04-02T09:38:22.116Z,0.20
2023-04-02T09:41:22.508Z,0.17
2023-04-02T09:43:49.402Z,0.20
2023-04-02T09:46:24.606Z,0.22
2023-04-02T09:49:01.144Z,0.20
2023-04-02T09:51:34.690Z,0.10
2023-04-02T09:54:04.492Z,0.20
2023-04-02T09:56:52.568Z,0.20
2023-04-02T09:59:23.076Z,0.20
2023-04-02T10:01:55.929Z,0.30
2023-04-02T10:04:49.591Z,0.20
2023-04-02T10:07:43.859Z,0.20
2023-04-02T10:10:31.679Z,0.25
2023-04-02T10:13:07.065Z,0.20
2023-04-02T10:15:43.691Z,0.20
2023-04-02T10:18:21.621Z,0.30
2023-04-02T10:20:52.764Z,0.20
2023-04-02T10:23:19.881Z,0.40
2023-04-02T10:25:55.710Z,0.20
2023-04-02T10:28:55.713Z,0.38
2023-04-02T10:31:33.913Z,0.30
2023-04-02T10:34:06.441Z,0.20
2023-04-02T10:36:54.928Z,0.20
2023-04-02T10:39:45.503Z,0.20
2023-04-02T10:42:35.380Z,0.20
2023-04-02T10:47:46.510Z,0.20
2023-04-02T10:50:33.951Z,0.30
2023-04-02T10:53:17.047Z,0.20
2023-04-02T10:55:48.607Z,0.30
2023-04-02T10:58:24.612Z,0.30
2023-04-02T11:00:56.856Z,0.30
2023-04-02T11:03:37.469Z,0.10
2023-04-02T11:06:17.394Z,0.20
2023-04-02T11:11:22.654Z,0.30
2023-04-02T11:13:56.945Z,0.30
2023-04-02T11:16:24.874Z,0.30
2023-04-02T11:19:23.056Z,0.20
2023-04-02T11:22:06.058Z,0.28
2023-04-02T11:24:39.030Z,0.20
2023-04-02T11:27:10.032Z,0.20
2023-04-02T11:29:58.276Z,0.20
2023-04-02T11:32:34.838Z,0.30
2023-04-02T11:35:26.778Z,0.10
2023-04-02T11:37:58.937Z,0.10
2023-04-02T11:40:59.035Z,0.20
2023-04-02T11:43:35.345Z,0.10
2023-04-02T11:46:24.877Z,0.10
2023-04-02T11:48:51.847Z,0.20
2023-04-02T11:51:22.582Z,0.28
2023-04-02T11:53:51.667Z,0.20
2023-04-02T11:57:00.450Z,0.15
2023-04-02T11:59:48.028Z,0.20
2023-04-02T12:02:44.507Z,0.10
2023-04-02T12:05:17.667Z,0.20
2023-04-02T12:08:15.363Z,0.20
2023-04-02T12:11:00.650Z,0.20
2023-04-02T12:13:39.599Z,0.20
2023-04-02T12:16:16.979Z,0.10
2023-04-02T12:18:46.842Z,0.22
2023-04-02T12:23:47.421Z,0.30
2023-04-02T12:29:33.995Z,0.30
2023-04-02T12:32:01.058Z,0.28
2023-04-02T12:34:29.730Z,0.20
2023-04-02T12:37:05.568Z,0.30
2023-04-02T12:39:34.008Z,0.25
2023-04-02T12:42:01.210Z,0.38
2023-04-02T12:44:29.967Z,0.30
2023-04-02T12:46:59.109Z,0.20
2023-04-02T12:49:33.614Z,0.20
2023-04-02T12:52:04.672Z,0.30
2023-04-02T12:54:38.316Z,0.35
2023-04-02T12:57:40.753Z,0.30
2023-04-02T13:00:20.040Z,0.30
2023-04-02T13:03:06.232Z,0.30
2023-04-02T13:05:36.197Z,0.30
2023-04-02T13:10:31.249Z,0.10
2023-04-02T13:13:03.337Z,0.10
2023-04-02T13:15:36.632Z,0.30
2023-04-02T13:18:23.181Z,0.20
2023-04-02T13:21:03.138Z,0.20
2023-04-02T13:23:30.004Z,0.10
2023-04-02T13:25:59.485Z,0.20
2023-04-02T13:28:26.457Z,0.10
2023-04-02T13:30:53.215Z,0.20
2023-04-02T13:33:20.527Z,0.10
2023-04-02T13:35:47.293Z,0.25
2023-04-02T13:38:14.028Z,0.10
2023-04-02T13:40:41.562Z,3.72
2023-04-02T13:43:16.927Z,2.10
2023-04-02T13:45:51.137Z,7.68
2023-04-02T13:48:18.470Z,5.82
2023-04-02T13:50:46.584Z,0.70
2023-04-02T13:53:24.891Z,0.30
2023-04-02T13:55:52.659Z,0.30
2023-04-02T13:58:19.695Z,0.40
2023-04-02T14:00:47.652Z,0.10
2023-04-02T14:03:19.294Z,0.60
2023-04-02T14:05:52.115Z,0.10
2023-04-02T14:08:21.980Z,0.20
2023-04-02T14:10:55.087Z,0.20
2023-04-02T14:13:45.094Z,0.10
2023-04-02T14:16:42.304Z,0.10
2023-04-02T14:19:15.843Z,0.40
2023-04-02T14:22:27.380Z,0.10
2023-04-02T14:25:08.561Z,0.10
2023-04-02T14:27:46.415Z,0.10
2023-04-02T14:30:34.581Z,0.10
2023-04-02T14:33:09.036Z,0.10
2023-04-02T14:35:38.452Z,0.10
2023-04-02T14:38:20.181Z,0.10
2023-04-02T14:40:54.767Z,0.03
2023-04-02T14:43:40.958Z,0.10
2023-04-02T14:46:10.509Z,0.10
2023-04-02T14:49:02.060Z,0.10
2023-04-02T14:51:40.947Z,0.20
2023-04-02T14:54:40.086Z,0.60
2023-04-02T14:57:18.863Z,0.30
2023-04-02T14:59:52.207Z,0.20
2023-04-02T15:02:28.059Z,0.70
2023-04-02T15:05:03.606Z,0.30
2023-04-02T15:07:41.736Z,0.20
2023-04-02T15:10:40.940Z,0.10
2023-04-02T15:13:20.892Z,0.30
2023-04-02T15:16:10.230Z,0.20
2023-04-02T15:18:38.303Z,0.22
2023-04-02T15:21:20.461Z,0.40
2023-04-02T15:24:02.420Z,0.40
2023-04-02T15:26:52.956Z,0.30
2023-04-02T15:29:58.657Z,0.20
2023-04-02T15:32:34.728Z,0.20
2023-04-02T15:35:16.936Z,0.20
2023-04-02T15:38:11.750Z,0.28
2023-04-02T15:40:43.607Z,0.20
2023-04-02T15:43:16.238Z,0.20
2023-04-02T15:45:58.138Z,0.32
2023-04-02T15:48:49.435Z,0.20
2023-04-02T15:51:34.733Z,0.20
2023-04-02T15:54:22.590Z,0.30
2023-04-02T15:57:21.099Z,0.50
2023-04-02T16:00:09.723Z,0.30
2023-04-02T16:03:17.359Z,0.50
2023-04-02T16:06:26.493Z,0.38
2023-04-02T16:09:02.175Z,0.33
2023-04-02T16:11:29.406Z,0.35
2023-04-02T16:14:32.215Z,0.57
2023-04-02T16:17:17.492Z,0.55
2023-04-02T16:20:06.936Z,0.40
2023-04-02T16:22:36.217Z,0.47
2023-04-02T16:25:19.481Z,0.52
2023-04-02T16:27:57.818Z,0.98
2023-04-02T16:30:55.313Z,1.00
2023-04-02T16:33:39.700Z,1.00
2023-04-02T16:36:18.602Z,1.17
2023-04-02T16:39:03.511Z,0.93
2023-04-02T16:41:55.032Z,1.10
2023-04-02T16:44:30.924Z,1.30
2023-04-02T16:47:22.394Z,1.17
2023-04-02T16:50:03.656Z,1.10
2023-04-02T16:52:45.311Z,1.05
2023-04-02T16:56:00.458Z,1.00
2023-04-02T16:58:45.930Z,1.15
2023-04-02T17:01:18.548Z,1.60
2023-04-02T17:03:57.856Z,1.60
2023-04-02T17:06:42.384Z,2.45
2023-04-02T17:09:16.904Z,2.47
2023-04-02T17:11:52.689Z,2.90
2023-04-02T17:14:26.417Z,3.45
2023-04-02T17:17:02.335Z,3.38
2023-04-02T17:19:31.249Z,3.35
2023-04-02T17:22:01.943Z,3.20
2023-04-02T17:24:44.404Z,3.47
2023-04-02T17:27:25.684Z,3.25
2023-04-02T17:29:58.758Z,3.50
2023-04-02T17:32:32.562Z,3.67
2023-04-02T17:35:32.267Z,3.00
2023-04-02T17:38:07.630Z,3.05
2023-04-02T17:40:50.237Z,2.88
2023-04-02T17:43:51.733Z,2.60
2023-04-02T17:46:21.519Z,2.05
2023-04-02T17:48:59.336Z,2.40
2023-04-02T17:51:30.564Z,2.40
2023-04-02T17:54:39.000Z,2.10
2023-04-02T17:57:51.142Z,2.00
2023-04-02T18:00:55.927Z,2.15
2023-04-02T18:03:38.804Z,2.10
2023-04-02T18:06:16.222Z,1.98
2023-04-02T18:08:46.030Z,1.63
2023-04-02T18:11:34.155Z,1.92
2023-04-02T18:14:28.750Z,2.00
2023-04-02T18:17:17.257Z,1.90
2023-04-02T18:20:21.560Z,2.38
2023-04-02T18:23:16.152Z,2.05
2023-04-02T18:25:55.368Z,2.42
2023-04-02T18:28:22.236Z,2.30
2023-04-02T18:30:52.040Z,2.20
2023-04-02T18:36:26.456Z,2.30
2023-04-02T18:39:18.605Z,2.45
2023-04-02T18:41:54.564Z,2.65
2023-04-02T18:44:38.803Z,2.67
2023-04-02T18:47:29.179Z,2.55
2023-04-02T18:50:22.250Z,2.25
2023-04-02T18:52:50.804Z,2.30
2023-04-02T18:55:32.131Z,2.25
2023-04-02T18:58:06.402Z,2.42
2023-04-02T19:00:38.243Z,2.33
2023-04-02T19:03:11.770Z,2.40
2023-04-02T19:05:41.532Z,2.38
2023-04-02T19:08:18.234Z,2.35
2023-04-02T19:10:49.276Z,2.38
2023-04-02T19:13:18.250Z,2.13
2023-04-02T19:15:54.503Z,2.60
2023-04-02T19:18:36.024Z,2.28
2023-04-02T19:21:36.526Z,2.17
2023-04-02T19:24:28.281Z,2.40
2023-04-02T19:27:20.434Z,2.33
2023-04-02T19:30:10.233Z,2.28
2023-04-02T19:32:58.370Z,2.50
2023-04-02T19:35:54.096Z,2.58
2023-04-02T19:38:31.140Z,2.50
2023-04-02T19:41:14.819Z,2.45
2023-04-02T19:43:41.764Z,2.85
2023-04-02T19:46:08.608Z,2.65
2023-04-02T19:49:13.361Z,2.72
2023-04-02T19:51:40.144Z,2.85
2023-04-02T19:54:06.847Z,3.55
2023-04-02T19:56:33.748Z,3.72
2023-04-02T19:59:07.725Z,3.10
2023-04-02T20:01:43.856Z,2.92
2023-04-02T20:04:10.646Z,3.05
2023-04-02T20:06:37.674Z,2.85
2023-04-02T20:09:04.451Z,2.90
2023-04-02T20:11:31.305Z,3.13
2023-04-02T20:13:58.079Z,3.00
2023-04-02T20:16:24.906Z,2.90
2023-04-02T20:18:51.858Z,3.30
2023-04-02T20:21:19.014Z,3.08
2023-04-02T20:23:46.064Z,3.33
2023-04-02T20:26:13.274Z,2.90
2023-04-02T20:28:40.125Z,2.92
2023-04-02T20:31:16.102Z,3.22
2023-04-02T20:33:44.512Z,3.20
2023-04-02T20:36:14.003Z,3.33
2023-04-02T20:38:40.849Z,3.50
2023-04-02T20:41:08.362Z,3.00
2023-04-02T20:43:36.511Z,2.95
2023-04-02T20:46:05.704Z,3.13
2023-04-02T20:48:34.103Z,3.00
2023-04-02T20:51:02.822Z,3.38
2023-04-02T20:53:31.156Z,3.50
2023-04-02T20:56:10.919Z,3.00
2023-04-02T20:58:38.894Z,3.17
2023-04-02T21:01:11.966Z,2.90
2023-04-02T21:03:40.093Z,3.00
2023-04-02T21:06:13.245Z,2.97
2023-04-02T21:08:40.819Z,2.90
2023-04-02T21:11:08.562Z,2.75
2023-04-02T21:13:36.499Z,3.05
2023-04-02T21:16:13.872Z,2.83
2023-04-02T21:18:40.800Z,3.03
2023-04-02T21:21:07.880Z,3.05
2023-04-02T21:23:34.790Z,3.30
2023-04-02T21:26:05.029Z,3.22
2023-04-02T21:28:33.231Z,3.50
2023-04-02T21:31:04.000Z,3.28
2023-04-02T21:33:35.241Z,3.13
2023-04-02T21:36:11.346Z,3.08
2023-04-02T21:38:43.018Z,3.47
2023-04-02T21:41:16.133Z,2.95
2023-04-02T21:43:43.417Z,3.40
2023-04-02T21:46:10.648Z,3.50
2023-04-02T21:48:37.627Z,3.13
2023-04-02T21:51:09.472Z,3.35
2023-04-02T21:53:36.517Z,2.90
2023-04-02T21:56:05.927Z,3.30
2023-04-02T21:58:32.972Z,3.60
2023-04-02T22:01:00.711Z,2.80
2023-04-02T22:03:31.691Z,2.85
2023-04-02T22:06:11.529Z,3.30
2023-04-02T22:08:39.806Z,3.53
2023-04-02T22:11:18.599Z,3.58
2023-04-02T22:13:47.189Z,3.50
2023-04-02T22:16:16.390Z,3.42
2023-04-02T22:18:44.305Z,3.40
2023-04-02T22:21:11.708Z,3.60
2023-04-02T22:23:39.330Z,3.20
2023-04-02T22:26:07.474Z,3.33
2023-04-02T22:28:34.713Z,3.20
2023-04-02T22:31:11.641Z,3.13
2023-04-02T22:33:38.985Z,2.63
2023-04-02T22:36:06.694Z,2.88
2023-04-02T22:38:34.459Z,3.70
2023-04-02T22:41:13.780Z,2.90
2023-04-02T22:43:41.533Z,3.22
2023-04-02T22:46:09.517Z,2.92
2023-04-02T22:48:39.473Z,2.83
2023-04-02T22:51:07.922Z,3.00
2023-04-02T22:53:36.599Z,2.70
2023-04-02T22:56:06.639Z,2.70
2023-04-02T23:01:23.128Z,2.67
2023-04-02T23:03:50.166Z,2.80
2023-04-02T23:06:18.467Z,2.67
2023-04-02T23:08:46.719Z,2.72
2023-04-02T23:11:16.637Z,2.80
2023-04-02T23:13:47.469Z,2.55
2023-04-02T23:16:15.519Z,2.40
2023-04-02T23:18:43.565Z,2.65
2023-04-02T23:21:10.460Z,2.60
2023-04-02T23:23:37.532Z,2.42
2023-04-02T23:26:14.893Z,2.70
2023-04-02T23:28:42.512Z,2.83
2023-04-02T23:31:13.898Z,2.28
2023-04-02T23:33:40.966Z,2.33
2023-04-02T23:36:10.216Z,2.35
2023-04-02T23:38:37.210Z,2.60
2023-04-02T23:41:04.125Z,2.80
2023-04-02T23:43:31.285Z,2.60
2023-04-02T23:45:58.264Z,2.45
2023-04-02T23:48:25.211Z,2.10
2023-04-02T23:50:51.955Z,2.42
2023-04-02T23:53:19.014Z,2.72
2023-04-02T23:55:46.024Z,2.55
2023-04-02T23:58:13.138Z,2.15
